Time;durP1;ratioP1;P1;durP2;ratioP2;P2;SDS_P1;SDS_P2;PMS_P1;PMS_P2;Temp;Humidity;BMP_temperature;BMP_pressure;BME280_temperature;BME280_humidity;BME280_pressure;Samples;Min_cycle;Max_cycle;Signal;HPM_P1;HPM_P2
2021/09/05 00:01:24;;;;;;;1.30;1.20;;;14.40;68.70;;;;;;4964916;28;20126;-89
2021/09/05 00:03:50;;;;;;;1.40;1.30;;;14.40;68.70;;;;;;4987419;28;20074;-90
2021/09/05 00:06:16;;;;;;;2.45;1.30;;;14.40;68.70;;;;;;4994365;28;20107;-87
2021/09/05 00:08:43;;;;;;;1.20;1.10;;;14.40;68.70;;;;;;4988045;28;20034;-89
2021/09/05 00:11:10;;;;;;;1.92;0.85;;;14.30;68.60;;;;;;4965834;28;20043;-89
2021/09/05 00:13:36;;;;;;;1.27;1.17;;;14.40;68.60;;;;;;4981402;28;20035;-89
2021/09/05 00:16:03;;;;;;;1.33;1.23;;;14.40;68.50;;;;;;4981385;28;20476;-89
2021/09/05 00:18:28;;;;;;;1.33;1.10;;;14.40;68.50;;;;;;4981025;28;20129;-90
2021/09/05 00:20:54;;;;;;;1.30;1.02;;;14.40;68.40;;;;;;4965747;28;20070;-89
2021/09/05 00:23:20;;;;;;;0.82;0.82;;;14.40;68.40;;;;;;4965704;28;20041;-89
2021/09/05 00:25:46;;;;;;;3.10;1.42;;;14.40;68.40;;;;;;4994515;28;20038;-90
2021/09/05 00:28:12;;;;;;;0.77;0.77;;;14.40;68.30;;;;;;5002023;28;20049;-89
2021/09/05 00:30:38;;;;;;;1.58;0.95;;;14.40;68.20;;;;;;5001035;28;20042;-89
2021/09/05 00:33:07;;;;;;;1.20;1.10;;;14.40;68.20;;;;;;4984417;28;20092;-89
2021/09/05 00:35:34;;;;;;;1.50;1.40;;;14.40;68.20;;;;;;5001894;28;20086;-89
2021/09/05 00:38:00;;;;;;;1.00;0.95;;;14.40;68.20;;;;;;5001965;28;20548;-89
2021/09/05 00:40:26;;;;;;;1.95;0.95;;;14.40;68.20;;;;;;4984225;28;20030;-88
2021/09/05 00:42:52;;;;;;;0.88;0.85;;;14.50;68.20;;;;;;4999749;28;20035;-89
2021/09/05 00:45:18;;;;;;;1.52;0.90;;;14.40;68.20;;;;;;5000302;28;20034;-89
2021/09/05 00:47:44;;;;;;;0.82;0.80;;;14.40;68.20;;;;;;5000300;28;20129;-89
2021/09/05 00:50:12;;;;;;;1.20;0.93;;;14.50;68.20;;;;;;5000180;28;20042;-89
2021/09/05 00:52:39;;;;;;;0.90;0.90;;;14.50;68.20;;;;;;5001501;28;20074;-88
2021/09/05 00:55:06;;;;;;;0.93;0.82;;;14.50;68.20;;;;;;4999996;28;20038;-89
2021/09/05 00:57:32;;;;;;;1.35;1.10;;;14.50;68.10;;;;;;5006106;28;20042;-88
2021/09/05 00:59:59;;;;;;;2.25;1.13;;;14.50;68.10;;;;;;4989826;28;20034;-88
2021/09/05 01:02:26;;;;;;;1.65;1.13;;;14.50;68.10;;;;;;5007176;28;20394;-90
2021/09/05 01:04:52;;;;;;;1.58;1.08;;;14.40;68.00;;;;;;5002470;28;20057;-90
2021/09/05 01:07:19;;;;;;;0.93;0.85;;;14.40;68.00;;;;;;4984997;28;20038;-90
2021/09/05 01:09:45;;;;;;;0.80;0.80;;;14.40;68.00;;;;;;5000931;28;20041;-89
2021/09/05 01:12:13;;;;;;;1.63;0.98;;;14.40;68.00;;;;;;4983886;28;20038;-88
2021/09/05 01:14:39;;;;;;;1.17;1.00;;;14.50;68.10;;;;;;5000167;28;20117;-88
2021/09/05 01:17:10;;;;;;;1.60;1.10;;;14.40;68.00;;;;;;4983293;28;20034;-89
2021/09/05 01:19:48;;;;;;;2.50;1.08;;;14.50;68.10;;;;;;5001424;28;20034;-89
2021/09/05 01:22:33;;;;;;;1.20;1.10;;;14.40;68.10;;;;;;5000030;28;20046;-89
2021/09/05 01:25:17;;;;;;;1.20;1.00;;;14.40;68.20;;;;;;4999088;28;20041;-89
2021/09/05 01:27:49;;;;;;;2.10;1.10;;;14.40;68.10;;;;;;4991757;28;20308;-89
2021/09/05 01:30:34;;;;;;;1.13;1.02;;;14.40;68.20;;;;;;4999438;28;20424;-89
2021/09/05 01:33:19;;;;;;;1.27;1.17;;;14.40;68.10;;;;;;5000327;28;20064;-91
2021/09/05 01:36:04;;;;;;;1.25;0.85;;;14.40;68.00;;;;;;5000905;28;20052;-90
2021/09/05 01:38:35;;;;;;;1.05;0.90;;;14.40;68.00;;;;;;5001097;28;20497;-90
2021/09/05 01:41:30;;;;;;;1.00;1.00;;;14.40;68.00;;;;;;4987807;28;20061;-90
2021/09/05 01:44:22;;;;;;;1.63;0.95;;;14.40;68.00;;;;;;4998778;28;20038;-90
2021/09/05 01:47:06;;;;;;;1.20;0.85;;;14.40;68.00;;;;;;5001019;28;20065;-90
2021/09/05 01:49:55;;;;;;;4.32;1.02;;;14.40;67.90;;;;;;5000716;28;20074;-91
2021/09/05 01:52:50;;;;;;;1.13;1.00;;;14.40;67.90;;;;;;4985881;28;20039;-91
2021/09/05 01:55:35;;;;;;;1.67;1.00;;;14.40;67.80;;;;;;4986256;28;20548;-90
2021/09/05 01:58:19;;;;;;;1.83;1.00;;;14.40;67.80;;;;;;5005057;28;20111;-91
2021/09/05 02:00:45;;;;;;;1.55;1.00;;;14.40;67.80;;;;;;5002160;28;20070;-91
2021/09/05 02:03:25;;;;;;;0.95;0.95;;;14.40;67.90;;;;;;4988205;28;20030;-91
2021/09/05 02:06:14;;;;;;;1.05;0.95;;;14.40;67.80;;;;;;4994077;28;20109;-91
2021/09/05 02:09:11;;;;;;;0.90;0.90;;;14.40;67.80;;;;;;5001369;28;20038;-92
2021/09/05 02:12:00;;;;;;;0.80;0.73;;;14.40;67.80;;;;;;4999497;28;20050;-90
2021/09/05 02:14:45;;;;;;;2.13;0.65;;;14.40;67.70;;;;;;5000986;28;20053;-90
2021/09/05 02:17:30;;;;;;;1.35;0.90;;;14.40;67.70;;;;;;5000520;28;20097;-91
2021/09/05 02:20:25;;;;;;;1.25;1.15;;;14.40;67.70;;;;;;4987454;28;20117;-91
2021/09/05 02:23:30;;;;;;;2.13;1.20;;;14.40;67.60;;;;;;4985938;28;20034;-90
2021/09/05 02:26:21;;;;;;;1.38;0.82;;;14.40;67.60;;;;;;4985626;28;20072;-91
2021/09/05 02:29:19;;;;;;;0.70;0.70;;;14.40;67.60;;;;;;4981161;28;20046;-86
2021/09/05 02:32:16;;;;;;;0.95;0.80;;;14.40;67.60;;;;;;4966365;28;20097;-86
2021/09/05 02:35:01;;;;;;;1.05;0.77;;;14.40;67.70;;;;;;4978462;28;20065;-86
2021/09/05 02:37:46;;;;;;;0.80;0.80;;;14.40;67.60;;;;;;4979424;28;20050;-86
2021/09/05 02:40:28;;;;;;;1.10;1.00;;;14.40;67.70;;;;;;4964667;28;20030;-87
2021/09/05 02:43:26;;;;;;;0.88;0.88;;;14.40;67.60;;;;;;4979299;28;20117;-86
2021/09/05 02:46:11;;;;;;;1.88;0.98;;;14.40;67.50;;;;;;4981994;28;20077;-90
2021/09/05 02:48:57;;;;;;;1.13;1.02;;;14.40;67.60;;;;;;4985771;28;20087;-90
2021/09/05 02:51:46;;;;;;;1.77;1.67;;;14.30;67.60;;;;;;4986494;28;20042;-90
2021/09/05 02:54:44;;;;;;;1.00;1.00;;;14.40;67.70;;;;;;4983567;28;20121;-91
2021/09/05 02:57:45;;;;;;;1.13;1.02;;;14.40;67.60;;;;;;4961531;29;20047;-91
2021/09/05 03:00:32;;;;;;;;;;;14.40;67.50;;;;;;4960934;29;20040;-90
2021/09/05 03:03:14;;;;;;;1.23;0.75;;;14.40;67.50;;;;;;4930088;29;19914;-90
2021/09/05 03:06:13;;;;;;;1.85;1.00;;;14.40;67.40;;;;;;4964835;28;20050;-91
2021/09/05 03:09:02;;;;;;;2.33;1.10;;;14.40;67.40;;;;;;4980936;28;20057;-90
2021/09/05 03:11:51;;;;;;;1.05;1.00;;;14.40;67.40;;;;;;4979664;28;20051;-89
2021/09/05 03:14:44;;;;;;;2.70;0.80;;;14.40;67.50;;;;;;4980068;28;20043;-92
2021/09/05 03:17:25;;;;;;;0.85;0.73;;;14.40;67.40;;;;;;4987712;28;20034;-89
2021/09/05 03:20:29;;;;;;;0.63;0.63;;;14.40;67.40;;;;;;4993208;28;20030;-90
2021/09/05 03:23:30;;;;;;;0.88;0.55;;;14.40;67.30;;;;;;4974974;28;20042;-88
2021/09/05 03:26:35;;;;;;;0.88;0.88;;;14.40;67.40;;;;;;4955960;29;20063;-88
2021/09/05 03:29:36;;;;;;;1.00;0.90;;;14.40;67.30;;;;;;4900747;29;20041;-88
2021/09/05 03:32:03;;;;;;;1.13;0.93;;;14.40;67.30;;;;;;4968688;28;20128;-88
2021/09/05 03:34:47;;;;;;;0.80;0.80;;;14.40;67.30;;;;;;4998757;28;20073;-89
2021/09/05 03:37:31;;;;;;;0.75;0.75;;;14.50;67.30;;;;;;4998334;28;20169;-88
2021/09/05 03:40:20;;;;;;;0.77;0.77;;;14.40;67.20;;;;;;4961593;29;20530;-88
2021/09/05 03:43:11;;;;;;;1.02;1.00;;;14.50;67.30;;;;;;4947738;29;20035;-89
2021/09/05 03:46:09;;;;;;;1.98;0.77;;;14.50;67.30;;;;;;4958214;28;20058;-91
2021/09/05 03:49:04;;;;;;;0.77;0.77;;;14.50;67.40;;;;;;4987402;28;20565;-91
2021/09/05 03:51:33;;;;;;;1.10;0.70;;;14.50;67.40;;;;;;4969309;28;20061;-91
2021/09/05 03:53:59;;;;;;;0.90;0.90;;;14.50;67.40;;;;;;4984752;28;20038;-91
2021/09/05 03:56:25;;;;;;;0.80;0.80;;;14.50;67.40;;;;;;5003155;28;20057;-91
2021/09/05 03:58:55;;;;;;;0.80;0.60;;;14.50;67.40;;;;;;5002358;28;20038;-90
2021/09/05 04:01:24;;;;;;;1.33;1.00;;;14.50;67.50;;;;;;5002652;28;20034;-92
2021/09/05 04:04:04;;;;;;;0.75;0.75;;;14.50;67.40;;;;;;5002894;28;20031;-92
2021/09/05 04:06:30;;;;;;;0.80;0.80;;;14.50;67.40;;;;;;4986978;28;20436;-91
2021/09/05 04:08:57;;;;;;;1.15;1.00;;;14.50;67.50;;;;;;5002943;28;20420;-90
2021/09/05 04:11:23;;;;;;;0.82;0.82;;;14.50;67.40;;;;;;5003574;28;20088;-92
2021/09/05 04:13:49;;;;;;;1.55;0.95;;;14.60;67.50;;;;;;5004638;28;20038;-89
2021/09/05 04:16:15;;;;;;;1.20;1.10;;;14.60;67.50;;;;;;5002517;28;20077;-90
2021/09/05 04:18:41;;;;;;;1.40;1.30;;;14.60;67.60;;;;;;5000785;28;20042;-89
2021/09/05 04:21:06;;;;;;;1.13;0.98;;;14.60;67.60;;;;;;5002343;28;20065;-90
2021/09/05 04:23:32;;;;;;;1.20;1.10;;;14.60;67.60;;;;;;4984789;28;20035;-89
2021/09/05 04:25:58;;;;;;;0.90;0.90;;;14.60;67.60;;;;;;5000417;28;20093;-89
2021/09/05 04:28:24;;;;;;;0.90;0.90;;;14.60;67.60;;;;;;5001220;28;20449;-91
2021/09/05 04:30:50;;;;;;;1.27;1.02;;;14.70;67.70;;;;;;4999885;28;20093;-88
2021/09/05 04:33:16;;;;;;;1.35;1.08;;;14.70;67.60;;;;;;4983724;28;20042;-88
2021/09/05 04:35:42;;;;;;;0.85;0.82;;;14.70;67.60;;;;;;4984548;28;20062;-89
2021/09/05 04:38:08;;;;;;;0.95;0.85;;;14.70;67.60;;;;;;5003958;28;20042;-89
2021/09/05 04:40:33;;;;;;;1.42;1.00;;;14.70;67.60;;;;;;5006112;28;20080;-89
2021/09/05 04:42:59;;;;;;;1.20;1.10;;;14.80;67.70;;;;;;5007347;28;20030;-88
2021/09/05 04:45:26;;;;;;;0.90;0.90;;;14.80;67.60;;;;;;5002440;28;20034;-89
2021/09/05 04:47:51;;;;;;;0.90;0.90;;;14.80;67.60;;;;;;4985656;28;20034;-89
2021/09/05 04:50:17;;;;;;;0.85;0.85;;;14.80;67.50;;;;;;4984407;28;20040;-90
2021/09/05 04:52:43;;;;;;;1.45;1.00;;;14.80;67.50;;;;;;5000905;28;20043;-89
2021/09/05 04:55:09;;;;;;;1.33;0.90;;;14.90;67.70;;;;;;5000156;28;20044;-89
2021/09/05 04:57:35;;;;;;;1.88;1.00;;;14.90;67.50;;;;;;4999952;28;20500;-90
2021/09/05 05:00:01;;;;;;;2.15;1.02;;;14.90;67.50;;;;;;5000550;28;20058;-90
2021/09/05 05:02:27;;;;;;;1.40;0.82;;;15.00;67.60;;;;;;5001369;28;20073;-91
2021/09/05 05:04:53;;;;;;;1.13;1.02;;;15.00;67.50;;;;;;4984471;28;20045;-90
2021/09/05 05:07:19;;;;;;;0.77;0.77;;;15.10;67.40;;;;;;5000987;28;20038;-91
2021/09/05 05:09:44;;;;;;;0.80;0.80;;;15.10;67.30;;;;;;5000950;28;20031;-91
2021/09/05 05:12:12;;;;;;;1.05;1.00;;;15.10;67.40;;;;;;4984740;28;20038;-88
2021/09/05 05:14:39;;;;;;;1.10;1.10;;;15.20;67.40;;;;;;5001359;28;20034;-89
2021/09/05 05:17:05;;;;;;;1.33;1.23;;;15.20;67.30;;;;;;4998155;28;20061;-90
2021/09/05 05:19:31;;;;;;;1.00;1.00;;;15.20;67.30;;;;;;5000602;28;20038;-89
2021/09/05 05:21:57;;;;;;;1.02;1.00;;;15.20;67.30;;;;;;5000113;28;20057;-90
2021/09/05 05:24:22;;;;;;;1.55;0.80;;;15.20;67.40;;;;;;5002440;28;20088;-92
2021/09/05 05:26:48;;;;;;;1.20;1.10;;;15.20;67.40;;;;;;4986647;28;20041;-93
2021/09/05 05:29:14;;;;;;;0.68;0.68;;;15.20;67.50;;;;;;5003457;28;20038;-93
2021/09/05 05:31:40;;;;;;;1.70;0.75;;;15.20;67.30;;;;;;4988714;28;20081;-92
2021/09/05 05:34:06;;;;;;;1.88;0.85;;;15.30;67.60;;;;;;5001712;28;20046;-90
2021/09/05 05:36:33;;;;;;;0.90;0.90;;;15.30;67.40;;;;;;5002482;28;20038;-89
2021/09/05 05:38:59;;;;;;;0.98;0.90;;;15.30;67.50;;;;;;5013414;28;20101;-93
2021/09/05 05:41:25;;;;;;;0.85;0.85;;;15.30;67.40;;;;;;5007133;28;20038;-92
2021/09/05 05:43:51;;;;;;;0.88;0.88;;;15.30;67.50;;;;;;5003206;28;20046;-90
2021/09/05 05:46:18;;;;;;;0.70;0.70;;;15.30;67.40;;;;;;4999690;28;20129;-87
2021/09/05 05:48:44;;;;;;;2.08;0.85;;;15.30;67.40;;;;;;4997052;28;20484;-87
2021/09/05 05:51:10;;;;;;;1.08;1.00;;;15.30;67.40;;;;;;4999664;28;20712;-90
2021/09/05 05:53:36;;;;;;;0.88;0.80;;;15.40;67.40;;;;;;4999994;28;20030;-91
2021/09/05 05:56:02;;;;;;;1.10;0.80;;;15.40;67.40;;;;;;4998334;28;20026;-89
2021/09/05 05:58:29;;;;;;;0.93;0.93;;;15.50;67.50;;;;;;4982403;28;20038;-88
2021/09/05 06:00:55;;;;;;;2.50;1.05;;;15.80;67.90;;;;;;4981669;28;20038;-87
2021/09/05 06:03:23;;;;;;;1.52;0.93;;;15.90;67.70;;;;;;4998387;28;20126;-84
2021/09/05 06:05:51;;;;;;;2.38;1.13;;;15.90;67.00;;;;;;4982272;28;20284;-84
2021/09/05 06:08:19;;;;;;;2.15;1.17;;;15.90;66.10;;;;;;4999357;28;20046;-84
2021/09/05 06:10:45;;;;;;;0.88;0.70;;;15.90;65.50;;;;;;4998246;28;20042;-83
2021/09/05 06:13:11;;;;;;;2.17;1.02;;;15.80;65.20;;;;;;4982250;28;20045;-83
2021/09/05 06:15:37;;;;;;;0.98;0.80;;;15.80;65.00;;;;;;4999343;28;20409;-83
2021/09/05 06:18:04;;;;;;;2.13;0.90;;;15.70;64.70;;;;;;4981920;28;20038;-82
2021/09/05 06:20:30;;;;;;;2.88;0.90;;;15.70;64.40;;;;;;4993912;28;20041;-83
2021/09/05 06:22:56;;;;;;;1.33;1.02;;;15.60;64.50;;;;;;4993709;28;20413;-83
2021/09/05 06:25:22;;;;;;;2.67;1.00;;;15.60;64.70;;;;;;4996101;28;20185;-83
2021/09/05 06:27:48;;;;;;;2.30;1.08;;;15.50;65.10;;;;;;4982648;28;20102;-82
2021/09/05 06:30:14;;;;;;;1.73;0.90;;;15.40;65.40;;;;;;5002183;28;20041;-83
2021/09/05 06:32:40;;;;;;;1.08;0.77;;;15.40;65.10;;;;;;5003911;28;20106;-84
2021/09/05 06:35:06;;;;;;;2.17;0.82;;;15.30;65.00;;;;;;4998861;28;20046;-84
2021/09/05 06:37:32;;;;;;;1.27;1.05;;;15.30;65.00;;;;;;4997803;28;20042;-83
2021/09/05 06:39:58;;;;;;;3.20;0.93;;;15.30;65.00;;;;;;4998135;28;20034;-83
2021/09/05 06:42:24;;;;;;;2.42;1.00;;;15.30;65.10;;;;;;4998165;28;20096;-83
2021/09/05 06:44:50;;;;;;;1.00;0.80;;;15.20;65.10;;;;;;4980105;28;20521;-84
2021/09/05 06:47:15;;;;;;;1.35;0.82;;;15.30;65.00;;;;;;4998120;28;20445;-83
2021/09/05 06:49:41;;;;;;;1.38;1.10;;;15.20;65.10;;;;;;4998037;28;20041;-83
2021/09/05 06:52:07;;;;;;;1.23;0.90;;;15.20;65.10;;;;;;4997853;28;20030;-83
2021/09/05 06:54:33;;;;;;;2.25;1.00;;;15.20;65.20;;;;;;4997929;28;20089;-83
2021/09/05 06:56:59;;;;;;;1.83;1.00;;;15.20;65.20;;;;;;4980413;28;20089;-83
2021/09/05 06:59:25;;;;;;;2.63;1.10;;;15.10;65.20;;;;;;4996389;28;20053;-83
2021/09/05 07:01:51;;;;;;;2.25;1.08;;;15.10;65.20;;;;;;4997797;28;20041;-82
2021/09/05 07:04:17;;;;;;;1.92;0.80;;;15.10;65.20;;;;;;4997856;28;20667;-83
2021/09/05 07:06:46;;;;;;;0.93;0.93;;;15.10;65.10;;;;;;4997648;28;20034;-84
2021/09/05 07:09:12;;;;;;;0.80;0.80;;;15.10;65.20;;;;;;4980543;28;20061;-84
2021/09/05 07:11:38;;;;;;;1.38;0.82;;;15.10;65.30;;;;;;4997811;28;20494;-83
2021/09/05 07:14:03;;;;;;;2.00;1.00;;;15.10;65.30;;;;;;4999496;28;20034;-84
2021/09/05 07:16:29;;;;;;;1.23;1.02;;;15.00;65.20;;;;;;5001177;28;20034;-84
2021/09/05 07:18:55;;;;;;;0.70;0.70;;;15.00;65.20;;;;;;5000670;28;20058;-83
2021/09/05 07:21:21;;;;;;;2.63;0.88;;;15.00;65.30;;;;;;5000357;28;20061;-84
2021/09/05 07:23:47;;;;;;;2.95;0.90;;;15.00;65.50;;;;;;5003957;28;20034;-83
2021/09/05 07:26:13;;;;;;;2.53;1.50;;;15.00;65.80;;;;;;5006666;28;20041;-83
2021/09/05 07:28:39;;;;;;;1.27;0.95;;;15.00;65.60;;;;;;5008140;28;20040;-84
2021/09/05 07:31:05;;;;;;;1.00;0.90;;;15.00;65.60;;;;;;5001446;28;20034;-85
2021/09/05 07:33:31;;;;;;;1.75;1.40;;;14.90;65.60;;;;;;5001448;28;20061;-84
2021/09/05 07:35:57;;;;;;;1.33;1.23;;;14.90;65.80;;;;;;5001131;28;20034;-84
2021/09/05 07:38:23;;;;;;;1.83;0.88;;;14.90;66.40;;;;;;5000611;28;20046;-84
2021/09/05 07:40:49;;;;;;;2.42;1.50;;;14.80;65.80;;;;;;5000937;28;20038;-84
2021/09/05 07:43:15;;;;;;;1.58;1.35;;;14.80;65.80;;;;;;5001950;28;20508;-84
2021/09/05 07:45:41;;;;;;;2.17;1.23;;;14.80;66.00;;;;;;5001262;28;20038;-83
2021/09/05 07:48:07;;;;;;;1.20;1.10;;;14.80;66.20;;;;;;5001203;28;20045;-84
2021/09/05 07:50:33;;;;;;;3.67;1.38;;;14.80;66.20;;;;;;4999852;28;20037;-84
2021/09/05 07:52:59;;;;;;;1.20;1.10;;;14.80;66.20;;;;;;5000039;28;20031;-84
2021/09/05 07:55:25;;;;;;;2.92;1.42;;;14.80;66.10;;;;;;4983621;28;20037;-85
2021/09/05 07:57:51;;;;;;;2.08;1.67;;;14.70;66.00;;;;;;4999621;28;20042;-85
2021/09/05 08:00:17;;;;;;;2.47;1.48;;;14.70;66.00;;;;;;5001046;28;20113;-84
2021/09/05 08:02:43;;;;;;;2.17;1.23;;;14.70;66.10;;;;;;4983651;28;20034;-84
2021/09/05 08:05:10;;;;;;;1.15;1.08;;;14.70;66.00;;;;;;4983758;28;20076;-85
2021/09/05 08:07:36;;;;;;;1.08;1.00;;;14.70;66.10;;;;;;5001267;28;20105;-85
2021/09/05 08:10:03;;;;;;;1.27;1.08;;;14.80;66.00;;;;;;5001646;28;20069;-84
2021/09/05 08:12:29;;;;;;;1.20;0.90;;;14.80;65.90;;;;;;5001116;28;20497;-85
2021/09/05 08:14:55;;;;;;;1.13;1.10;;;14.80;65.90;;;;;;4983284;28;20125;-85
2021/09/05 08:17:21;;;;;;;1.35;1.13;;;14.90;65.80;;;;;;5000868;28;20043;-85
2021/09/05 08:19:50;;;;;;;1.58;1.02;;;15.00;65.50;;;;;;4989650;28;20097;-84
2021/09/05 08:22:17;;;;;;;2.67;1.13;;;15.00;65.40;;;;;;5010452;28;20034;-84
2021/09/05 08:24:43;;;;;;;1.10;1.00;;;14.90;65.40;;;;;;5004898;28;20125;-84
2021/09/05 08:27:09;;;;;;;1.15;0.98;;;14.90;65.50;;;;;;4997186;28;20061;-84
2021/09/05 08:29:35;;;;;;;2.75;0.93;;;15.00;65.40;;;;;;5008032;28;20571;-85
2021/09/05 08:32:02;;;;;;;0.77;0.77;;;15.00;65.40;;;;;;4979866;28;20035;-85
2021/09/05 08:34:28;;;;;;;1.50;0.90;;;15.00;65.30;;;;;;4981949;28;20050;-85
2021/09/05 08:36:54;;;;;;;4.20;1.15;;;15.00;65.20;;;;;;5008863;28;20030;-85
2021/09/05 08:39:20;;;;;;;1.95;0.90;;;15.00;66.00;;;;;;4988439;28;20039;-85
2021/09/05 08:41:49;;;;;;;0.70;0.60;;;15.00;65.30;;;;;;5006610;28;20027;-84
2021/09/05 08:44:15;;;;;;;2.90;0.80;;;14.90;65.50;;;;;;4998725;28;20038;-86
2021/09/05 08:46:41;;;;;;;2.38;0.68;;;14.90;65.40;;;;;;4989140;28;20065;-86
2021/09/05 08:49:07;;;;;;;1.00;0.90;;;14.90;65.40;;;;;;4980202;28;20061;-87
2021/09/05 08:51:33;;;;;;;1.58;0.80;;;14.90;65.40;;;;;;4981070;28;20041;-86
2021/09/05 08:53:59;;;;;;;2.00;0.90;;;14.90;65.20;;;;;;4981077;28;20422;-85
2021/09/05 08:56:25;;;;;;;0.60;0.60;;;14.90;65.10;;;;;;4979952;28;20449;-84
2021/09/05 08:58:50;;;;;;;1.13;0.75;;;14.90;65.20;;;;;;4980015;28;20117;-85
2021/09/05 09:01:26;;;;;;;0.57;0.57;;;14.90;65.00;;;;;;4980895;28;20034;-84
2021/09/05 09:04:08;;;;;;;1.80;0.80;;;14.80;65.00;;;;;;4979856;28;20481;-85
2021/09/05 09:06:39;;;;;;;2.03;0.88;;;14.80;65.20;;;;;;4979790;28;20035;-86
2021/09/05 09:09:07;;;;;;;2.00;0.60;;;14.90;65.20;;;;;;4979669;28;20047;-85
2021/09/05 09:11:57;;;;;;;2.60;0.90;;;14.90;65.40;;;;;;4981064;28;20043;-86
2021/09/05 09:14:44;;;;;;;1.80;0.70;;;14.90;65.00;;;;;;4979545;28;20075;-86
2021/09/05 09:17:11;;;;;;;2.35;1.00;;;14.90;64.70;;;;;;4990624;28;20057;-84
2021/09/05 09:19:42;;;;;;;1.55;1.13;;;14.90;64.80;;;;;;4977828;28;20043;-85
2021/09/05 09:22:19;;;;;;;2.00;1.10;;;14.90;64.50;;;;;;4973313;28;20101;-86
2021/09/05 09:24:45;;;;;;;1.30;1.00;;;14.90;64.50;;;;;;4986473;28;20034;-85
2021/09/05 09:27:12;;;;;;;1.95;0.70;;;14.90;64.30;;;;;;4981082;28;20530;-85
2021/09/05 09:29:39;;;;;;;0.95;0.88;;;15.00;64.20;;;;;;4980717;28;20038;-84
2021/09/05 09:32:17;;;;;;;0.50;0.50;;;15.00;64.10;;;;;;4979287;28;20102;-85
2021/09/05 09:34:47;;;;;;;1.17;0.80;;;15.00;64.00;;;;;;4979246;28;20069;-85
2021/09/05 09:37:16;;;;;;;2.00;0.80;;;15.00;63.90;;;;;;4979895;28;20058;-85
2021/09/05 09:39:55;;;;;;;1.20;0.80;;;15.00;63.70;;;;;;4979194;28;20141;-84
2021/09/05 09:42:38;;;;;;;0.80;0.80;;;15.00;63.90;;;;;;4980414;28;20060;-85
2021/09/05 09:45:13;;;;;;;1.33;0.80;;;14.90;63.90;;;;;;4979049;28;20039;-84
2021/09/05 09:47:48;;;;;;;2.25;1.00;;;14.90;63.80;;;;;;4979200;28;20045;-88
2021/09/05 09:50:17;;;;;;;2.83;1.20;;;14.90;63.80;;;;;;4980287;28;20051;-88
2021/09/05 09:52:46;;;;;;;0.88;0.73;;;14.90;64.00;;;;;;4962910;28;20141;-88
2021/09/05 09:55:13;;;;;;;0.98;0.70;;;14.90;63.90;;;;;;4962843;28;20042;-86
2021/09/05 09:57:39;;;;;;;0.90;0.77;;;14.90;63.90;;;;;;4962024;28;20093;-88
2021/09/05 10:00:06;;;;;;;2.78;0.98;;;15.00;63.90;;;;;;4978684;28;20035;-87
2021/09/05 10:02:39;;;;;;;1.10;1.00;;;15.00;63.70;;;;;;4964032;28;20089;-89
2021/09/05 10:05:05;;;;;;;1.23;0.80;;;15.00;63.80;;;;;;4979058;28;20069;-89
2021/09/05 10:07:33;;;;;;;0.90;0.90;;;15.00;63.60;;;;;;4962126;28;20413;-88
2021/09/05 10:10:03;;;;;;;0.88;0.82;;;15.00;63.60;;;;;;4979708;28;20042;-88
2021/09/05 10:12:32;;;;;;;0.90;0.70;;;15.00;63.50;;;;;;4988215;28;20042;-90
2021/09/05 10:14:59;;;;;;;1.40;0.63;;;15.10;63.40;;;;;;4989434;28;20051;-87
2021/09/05 10:17:25;;;;;;;1.15;0.80;;;15.10;63.40;;;;;;4991426;28;20522;-88
2021/09/05 10:19:52;;;;;;;1.20;0.82;;;15.10;63.00;;;;;;4982039;28;20030;-89
2021/09/05 10:22:27;;;;;;;1.00;0.90;;;15.10;63.10;;;;;;4979311;28;20038;-88
2021/09/05 10:24:53;;;;;;;1.88;0.90;;;15.10;63.10;;;;;;4979188;28;20178;-89
2021/09/05 10:27:31;;;;;;;2.90;1.00;;;15.10;63.10;;;;;;4978602;28;20043;-88
2021/09/05 10:30:14;;;;;;;2.17;1.23;;;15.00;63.00;;;;;;4963397;28;20030;-89
2021/09/05 10:32:50;;;;;;;1.60;1.00;;;15.00;63.00;;;;;;4978821;28;20041;-89
2021/09/05 10:35:26;;;;;;;3.55;1.15;;;15.00;63.00;;;;;;4980038;28;20047;-90
2021/09/05 10:38:18;;;;;;;1.63;0.95;;;15.00;62.90;;;;;;4964402;28;20121;-91
2021/09/05 10:40:59;;;;;;;1.80;0.90;;;15.00;62.90;;;;;;4980558;28;20037;-91
2021/09/05 10:43:48;;;;;;;1.27;1.00;;;15.00;62.70;;;;;;4979753;28;20031;-89
2021/09/05 10:46:26;;;;;;;2.42;1.10;;;15.10;62.80;;;;;;4963609;28;20034;-90
2021/09/05 10:48:57;;;;;;;2.92;1.08;;;15.10;63.30;;;;;;4979373;28;20050;-90
2021/09/05 10:51:24;;;;;;;1.10;1.00;;;15.10;62.70;;;;;;4979636;28;20501;-88
2021/09/05 10:53:58;;;;;;;1.20;1.00;;;15.10;62.60;;;;;;4978524;28;20118;-87
2021/09/05 10:56:55;;;;;;;1.80;1.20;;;15.10;62.80;;;;;;4978462;28;20050;-88
2021/09/05 10:59:24;;;;;;;;;;;15.20;62.70;;;;;;4966805;28;20073;-88
2021/09/05 11:01:50;;;;;;;1.27;0.93;;;15.20;62.80;;;;;;4978697;28;19914;-88
2021/09/05 11:04:22;;;;;;;1.67;1.08;;;15.20;62.70;;;;;;4979638;28;20069;-88
2021/09/05 11:07:03;;;;;;;1.23;0.90;;;15.20;62.20;;;;;;4980705;28;20046;-88
2021/09/05 11:09:30;;;;;;;1.50;1.13;;;15.20;62.00;;;;;;4988809;28;20035;-87
2021/09/05 11:12:07;;;;;;;3.80;1.05;;;15.20;62.20;;;;;;4992578;28;20074;-87
2021/09/05 11:14:48;;;;;;;1.15;1.00;;;15.20;62.30;;;;;;4982061;28;20035;-87
2021/09/05 11:17:24;;;;;;;1.23;0.90;;;15.20;62.30;;;;;;4961806;28;20039;-87
2021/09/05 11:20:04;;;;;;;1.33;1.10;;;15.20;62.20;;;;;;4977268;28;20125;-86
2021/09/05 11:22:36;;;;;;;2.72;1.20;;;15.20;62.20;;;;;;4978103;28;20074;-86
2021/09/05 11:25:23;;;;;;;3.13;1.17;;;15.20;62.20;;;;;;4977843;28;20062;-86
2021/09/05 11:28:08;;;;;;;2.38;1.10;;;15.20;62.30;;;;;;4978682;28;20505;-90
2021/09/05 11:30:39;;;;;;;1.77;1.30;;;15.30;62.30;;;;;;4962722;28;20038;-88
2021/09/05 11:33:12;;;;;;;2.42;1.15;;;15.30;62.10;;;;;;4979202;28;20061;-88
2021/09/05 11:35:46;;;;;;;2.20;1.25;;;15.20;61.90;;;;;;4961706;28;20142;-87
2021/09/05 11:38:15;;;;;;;2.67;1.23;;;15.20;62.00;;;;;;4977540;28;20531;-89
2021/09/05 11:40:47;;;;;;;4.28;1.30;;;15.30;62.10;;;;;;4961464;28;20046;-85
2021/09/05 11:43:26;;;;;;;1.85;1.30;;;15.20;61.90;;;;;;4976916;28;20119;-84
2021/09/05 11:45:52;;;;;;;1.42;1.20;;;15.20;62.00;;;;;;4976968;28;20137;-85
2021/09/05 11:48:26;;;;;;;2.03;1.33;;;15.20;62.00;;;;;;4961246;28;20518;-86
2021/09/05 11:50:59;;;;;;;1.40;1.30;;;15.20;62.00;;;;;;4978413;28;20569;-84
2021/09/05 11:53:25;;;;;;;2.83;1.50;;;15.10;62.00;;;;;;4978281;28;20061;-85
2021/09/05 11:55:52;;;;;;;1.52;1.20;;;15.20;62.00;;;;;;4978243;28;20425;-85
2021/09/05 11:58:18;;;;;;;4.97;1.40;;;15.10;62.00;;;;;;4978420;28;20027;-83
2021/09/05 12:00:44;;;;;;;1.40;1.30;;;15.10;61.90;;;;;;4982391;28;20042;-84
2021/09/05 12:03:13;;;;;;;2.25;1.70;;;15.10;62.10;;;;;;4984127;28;20050;-84
2021/09/05 12:05:44;;;;;;;2.67;1.30;;;15.10;62.10;;;;;;4986082;28;20034;-85
2021/09/05 12:08:16;;;;;;;2.25;1.52;;;15.10;62.10;;;;;;4984042;28;20043;-85
2021/09/05 12:10:44;;;;;;;6.00;4.05;;;15.10;62.10;;;;;;4981416;28;20066;-86
2021/09/05 12:13:13;;;;;;;9.63;5.15;;;15.10;62.10;;;;;;4982729;28;20181;-86
2021/09/05 12:15:44;;;;;;;5.70;3.50;;;15.10;62.40;;;;;;4981791;28;20053;-87
2021/09/05 12:18:20;;;;;;;3.92;2.92;;;15.10;62.40;;;;;;4980358;28;20038;-87
2021/09/05 12:20:59;;;;;;;2.63;2.33;;;15.20;62.50;;;;;;4981619;28;20064;-86
2021/09/05 12:23:28;;;;;;;3.25;2.20;;;15.10;62.40;;;;;;4964055;28;20034;-87
2021/09/05 12:25:57;;;;;;;2.15;1.90;;;15.20;62.40;;;;;;4979966;28;20030;-87
2021/09/05 12:28:31;;;;;;;2.10;1.92;;;15.20;62.60;;;;;;4981326;28;20038;-86
2021/09/05 12:31:05;;;;;;;3.15;1.83;;;15.10;62.90;;;;;;4980108;28;20038;-87
2021/09/05 12:33:38;;;;;;;5.43;2.17;;;15.10;63.50;;;;;;4979962;28;20137;-87
2021/09/05 12:36:04;;;;;;;3.75;1.95;;;15.10;64.00;;;;;;5000535;28;20064;-87
2021/09/05 12:38:33;;;;;;;2.08;1.30;;;15.10;64.30;;;;;;5000911;28;20042;-87
2021/09/05 12:41:10;;;;;;;1.30;1.20;;;15.00;64.60;;;;;;5016779;28;20034;-88
2021/09/05 12:43:44;;;;;;;1.90;1.40;;;15.00;64.80;;;;;;4999972;28;20026;-88
2021/09/05 12:46:10;;;;;;;0.82;0.80;;;15.10;65.00;;;;;;5001486;28;20030;-88
2021/09/05 12:48:39;;;;;;;1.60;0.88;;;15.00;65.20;;;;;;5001161;28;20038;-88
2021/09/05 12:51:15;;;;;;;1.00;0.90;;;15.10;65.60;;;;;;5016492;28;20049;-87
2021/09/05 12:53:58;;;;;;;0.70;0.70;;;15.00;65.80;;;;;;5016296;28;20046;-87
2021/09/05 12:56:24;;;;;;;1.08;0.98;;;15.10;66.00;;;;;;4983221;28;20513;-87
2021/09/05 12:58:51;;;;;;;1.67;0.90;;;15.00;66.00;;;;;;5018316;28;20427;-86
2021/09/05 13:01:30;;;;;;;1.98;1.10;;;15.10;66.10;;;;;;5007627;28;20031;-87
2021/09/05 13:03:58;;;;;;;1.13;1.02;;;15.10;66.20;;;;;;4990693;28;20084;-85
2021/09/05 13:06:27;;;;;;;2.55;1.20;;;15.10;66.20;;;;;;4985996;28;20042;-88
2021/09/05 13:08:55;;;;;;;6.13;1.75;;;15.00;66.10;;;;;;4984331;28;20034;-90
2021/09/05 13:11:28;;;;;;;2.08;1.70;;;15.10;66.30;;;;;;4994496;28;20030;-85
2021/09/05 13:13:56;;;;;;;2.97;1.77;;;15.00;66.30;;;;;;4980691;28;20124;-85